sensor_id;sensor_type;location;lat;lon;timestamp;P1;durP1;ratioP1;P2;durP2;ratioP2
21501;SDS011;27639;48.674;9.242;2023-04-07T00:02:03;16.27;;;11.05;;
21501;SDS011;27639;48.674;9.242;2023-04-07T00:04:28;11.90;;;7.70;;
21501;SDS011;27639;48.674;9.242;2023-04-07T00:06:54;15.25;;;9.48;;
21501;SDS011;27639;48.674;9.242;2023-04-07T00:09:19;18.10;;;11.93;;
21501;SDS011;27639;48.674;9.242;2023-04-07T00:11:45;47.92;;;28.40;;
21501;SDS011;27639;48.674;9.242;2023-04-07T00:14:12;13.27;;;10.88;;
21501;SDS011;27639;48.674;9.242;2023-04-07T00:16:38;10.05;;;7.53;;
21501;SDS011;27639;48.674;9.242;2023-04-07T00:19:04;8.65;;;6.85;;
21501;SDS011;27639;48.674;9.242;2023-04-07T00:21:30;7.57;;;5.47;;
21501;SDS011;27639;48.674;9.242;2023-04-07T00:23:55;8.93;;;6.15;;
21501;SDS011;27639;48.674;9.242;2023-04-07T00:26:21;10.82;;;6.70;;
21501;SDS011;27639;48.674;9.242;2023-04-07T00:28:47;9.20;;;6.93;;
21501;SDS011;27639;48.674;9.242;2023-04-07T00:31:12;8.52;;;6.38;;
21501;SDS011;27639;48.674;9.242;2023-04-07T00:33:38;9.65;;;6.50;;
21501;SDS011;27639;48.674;9.242;2023-04-07T00:36:04;7.95;;;5.47;;
21501;SDS011;27639;48.674;9.242;2023-04-07T00:38:30;7.95;;;5.90;;
21501;SDS011;27639;48.674;9.242;2023-04-07T00:40:56;8.27;;;5.65;;
21501;SDS011;27639;48.674;9.242;2023-04-07T00:43:23;8.80;;;5.93;;
21501;SDS011;27639;48.674;9.242;2023-04-07T00:45:49;9.57;;;5.68;;
21501;SDS011;27639;48.674;9.242;2023-04-07T00:48:15;8.85;;;5.68;;
21501;SDS011;27639;48.674;9.242;2023-04-07T00:50:41;8.13;;;5.40;;
21501;SDS011;27639;48.674;9.242;2023-04-07T00:53:06;8.50;;;5.55;;
21501;SDS011;27639;48.674;9.242;2023-04-07T00:55:32;8.90;;;6.25;;
21501;SDS011;27639;48.674;9.242;2023-04-07T00:57:58;7.93;;;6.07;;
21501;SDS011;27639;48.674;9.242;2023-04-07T01:00:23;9.25;;;6.32;;
21501;SDS011;27639;48.674;9.242;2023-04-07T01:02:56;8.38;;;5.97;;
21501;SDS011;27639;48.674;9.242;2023-04-07T01:05:37;9.30;;;6.05;;
21501;SDS011;27639;48.674;9.242;2023-04-07T01:08:23;9.43;;;7.20;;
21501;SDS011;27639;48.674;9.242;2023-04-07T01:13:31;10.05;;;7.32;;
21501;SDS011;27639;48.674;9.242;2023-04-07T01:16:04;7.85;;;6.53;;
21501;SDS011;27639;48.674;9.242;2023-04-07T01:18:35;9.70;;;6.55;;
21501;SDS011;27639;48.674;9.242;2023-04-07T01:21:05;7.63;;;5.70;;
21501;SDS011;27639;48.674;9.242;2023-04-07T01:26:27;9.30;;;6.22;;
21501;SDS011;27639;48.674;9.242;2023-04-07T01:31:43;8.35;;;5.82;;
21501;SDS011;27639;48.674;9.242;2023-04-07T01:34:10;9.57;;;6.63;;
21501;SDS011;27639;48.674;9.242;2023-04-07T01:36:37;9.55;;;6.25;;
21501;SDS011;27639;48.674;9.242;2023-04-07T01:39:03;8.95;;;6.38;;
21501;SDS011;27639;48.674;9.242;2023-04-07T01:41:30;10.77;;;6.07;;
21501;SDS011;27639;48.674;9.242;2023-04-07T01:43:57;8.85;;;6.25;;
21501;SDS011;27639;48.674;9.242;2023-04-07T01:46:24;8.35;;;6.00;;
21501;SDS011;27639;48.674;9.242;2023-04-07T01:48:50;8.90;;;6.35;;
21501;SDS011;27639;48.674;9.242;2023-04-07T01:51:16;9.00;;;5.93;;
21501;SDS011;27639;48.674;9.242;2023-04-07T01:53:46;7.50;;;5.80;;
21501;SDS011;27639;48.674;9.242;2023-04-07T01:56:13;8.30;;;6.03;;
21501;SDS011;27639;48.674;9.242;2023-04-07T01:58:39;8.85;;;5.93;;
21501;SDS011;27639;48.674;9.242;2023-04-07T02:01:05;9.85;;;6.18;;
21501;SDS011;27639;48.674;9.242;2023-04-07T02:03:45;8.60;;;6.13;;
21501;SDS011;27639;48.674;9.242;2023-04-07T02:06:19;9.57;;;6.10;;
21501;SDS011;27639;48.674;9.242;2023-04-07T02:08:56;8.85;;;5.95;;
21501;SDS011;27639;48.674;9.242;2023-04-07T02:11:26;9.30;;;6.10;;
21501;SDS011;27639;48.674;9.242;2023-04-07T02:13:56;9.80;;;6.57;;
21501;SDS011;27639;48.674;9.242;2023-04-07T02:16:23;8.80;;;6.45;;
21501;SDS011;27639;48.674;9.242;2023-04-07T02:18:50;8.90;;;6.55;;
21501;SDS011;27639;48.674;9.242;2023-04-07T02:21:18;10.25;;;7.40;;
21501;SDS011;27639;48.674;9.242;2023-04-07T02:23:45;8.70;;;6.50;;
21501;SDS011;27639;48.674;9.242;2023-04-07T02:26:10;9.30;;;6.25;;
21501;SDS011;27639;48.674;9.242;2023-04-07T02:28:36;8.57;;;5.80;;
21501;SDS011;27639;48.674;9.242;2023-04-07T02:31:01;8.20;;;6.28;;
21501;SDS011;27639;48.674;9.242;2023-04-07T02:33:27;8.60;;;6.22;;
21501;SDS011;27639;48.674;9.242;2023-04-07T02:35:53;10.32;;;6.80;;
21501;SDS011;27639;48.674;9.242;2023-04-07T02:38:18;10.07;;;6.38;;
21501;SDS011;27639;48.674;9.242;2023-04-07T02:40:44;10.25;;;7.43;;
21501;SDS011;27639;48.674;9.242;2023-04-07T02:43:10;9.00;;;6.60;;
21501;SDS011;27639;48.674;9.242;2023-04-07T02:45:35;10.55;;;7.05;;
21501;SDS011;27639;48.674;9.242;2023-04-07T02:48:01;9.80;;;6.60;;
21501;SDS011;27639;48.674;9.242;2023-04-07T02:50:26;10.43;;;7.05;;
21501;SDS011;27639;48.674;9.242;2023-04-07T02:52:53;14.95;;;9.38;;
21501;SDS011;27639;48.674;9.242;2023-04-07T02:55:18;14.90;;;10.13;;
21501;SDS011;27639;48.674;9.242;2023-04-07T02:57:44;14.52;;;10.43;;
21501;SDS011;27639;48.674;9.242;2023-04-07T03:00:10;12.88;;;8.70;;
21501;SDS011;27639;48.674;9.242;2023-04-07T03:02:36;10.25;;;7.72;;
21501;SDS011;27639;48.674;9.242;2023-04-07T03:05:01;12.45;;;8.05;;
21501;SDS011;27639;48.674;9.242;2023-04-07T03:07:28;9.82;;;6.80;;
21501;SDS011;27639;48.674;9.242;2023-04-07T03:09:55;11.45;;;7.18;;
21501;SDS011;27639;48.674;9.242;2023-04-07T03:12:21;10.85;;;7.22;;
21501;SDS011;27639;48.674;9.242;2023-04-07T03:14:47;11.10;;;7.20;;
21501;SDS011;27639;48.674;9.242;2023-04-07T03:17:12;9.90;;;7.50;;
21501;SDS011;27639;48.674;9.242;2023-04-07T03:19:38;9.85;;;7.13;;
21501;SDS011;27639;48.674;9.242;2023-04-07T03:22:03;10.25;;;7.50;;
21501;SDS011;27639;48.674;9.242;2023-04-07T03:24:29;10.25;;;7.15;;
21501;SDS011;27639;48.674;9.242;2023-04-07T03:26:55;10.32;;;7.55;;
21501;SDS011;27639;48.674;9.242;2023-04-07T03:29:21;9.88;;;6.95;;
21501;SDS011;27639;48.674;9.242;2023-04-07T03:31:46;10.10;;;6.85;;
21501;SDS011;27639;48.674;9.242;2023-04-07T03:34:12;9.50;;;7.10;;
21501;SDS011;27639;48.674;9.242;2023-04-07T03:36:38;9.45;;;7.05;;
21501;SDS011;27639;48.674;9.242;2023-04-07T03:39:03;9.68;;;7.50;;
21501;SDS011;27639;48.674;9.242;2023-04-07T03:41:29;10.98;;;7.00;;
21501;SDS011;27639;48.674;9.242;2023-04-07T03:43:55;9.82;;;7.55;;
21501;SDS011;27639;48.674;9.242;2023-04-07T03:46:21;10.10;;;7.13;;
21501;SDS011;27639;48.674;9.242;2023-04-07T03:48:47;9.95;;;7.00;;
21501;SDS011;27639;48.674;9.242;2023-04-07T03:51:12;9.68;;;7.15;;
21501;SDS011;27639;48.674;9.242;2023-04-07T03:53:38;12.68;;;7.65;;
21501;SDS011;27639;48.674;9.242;2023-04-07T03:56:03;11.57;;;7.78;;
21501;SDS011;27639;48.674;9.242;2023-04-07T03:58:29;11.13;;;7.78;;
21501;SDS011;27639;48.674;9.242;2023-04-07T04:00:55;11.05;;;7.40;;
21501;SDS011;27639;48.674;9.242;2023-04-07T04:03:21;11.93;;;8.30;;
21501;SDS011;27639;48.674;9.242;2023-04-07T04:05:46;13.27;;;8.07;;
21501;SDS011;27639;48.674;9.242;2023-04-07T04:08:12;10.75;;;8.07;;
21501;SDS011;27639;48.674;9.242;2023-04-07T04:10:37;11.23;;;7.55;;
21501;SDS011;27639;48.674;9.242;2023-04-07T04:13:03;10.52;;;7.90;;
21501;SDS011;27639;48.674;9.242;2023-04-07T04:15:30;11.13;;;7.95;;
21501;SDS011;27639;48.674;9.242;2023-04-07T04:17:56;11.30;;;8.23;;
21501;SDS011;27639;48.674;9.242;2023-04-07T04:20:21;11.75;;;8.10;;
21501;SDS011;27639;48.674;9.242;2023-04-07T04:22:47;11.65;;;8.25;;
21501;SDS011;27639;48.674;9.242;2023-04-07T04:25:13;11.32;;;8.18;;
21501;SDS011;27639;48.674;9.242;2023-04-07T04:27:40;11.15;;;8.20;;
21501;SDS011;27639;48.674;9.242;2023-04-07T04:30:06;10.77;;;8.07;;
21501;SDS011;27639;48.674;9.242;2023-04-07T04:32:32;11.27;;;7.88;;
21501;SDS011;27639;48.674;9.242;2023-04-07T04:34:58;11.88;;;8.07;;
21501;SDS011;27639;48.674;9.242;2023-04-07T04:37:24;11.52;;;7.75;;
21501;SDS011;27639;48.674;9.242;2023-04-07T04:39:50;10.20;;;7.75;;
21501;SDS011;27639;48.674;9.242;2023-04-07T04:42:16;10.98;;;8.57;;
21501;SDS011;27639;48.674;9.242;2023-04-07T04:44:41;11.50;;;8.55;;
21501;SDS011;27639;48.674;9.242;2023-04-07T04:47:07;10.35;;;8.07;;
21501;SDS011;27639;48.674;9.242;2023-04-07T04:49:32;12.23;;;8.32;;
21501;SDS011;27639;48.674;9.242;2023-04-07T04:51:58;12.20;;;8.63;;
21501;SDS011;27639;48.674;9.242;2023-04-07T04:54:23;14.48;;;8.88;;
21501;SDS011;27639;48.674;9.242;2023-04-07T04:56:49;11.00;;;8.00;;
21501;SDS011;27639;48.674;9.242;2023-04-07T04:59:15;12.18;;;8.43;;
21501;SDS011;27639;48.674;9.242;2023-04-07T05:01:40;13.80;;;8.57;;
21501;SDS011;27639;48.674;9.242;2023-04-07T05:04:06;11.38;;;8.80;;
21501;SDS011;27639;48.674;9.242;2023-04-07T05:06:33;12.80;;;9.25;;
21501;SDS011;27639;48.674;9.242;2023-04-07T05:08:58;11.85;;;8.48;;
21501;SDS011;27639;48.674;9.242;2023-04-07T05:11:24;11.93;;;8.23;;
21501;SDS011;27639;48.674;9.242;2023-04-07T05:13:50;13.30;;;8.77;;
21501;SDS011;27639;48.674;9.242;2023-04-07T05:16:16;13.07;;;9.02;;
21501;SDS011;27639;48.674;9.242;2023-04-07T05:18:41;12.73;;;8.80;;
21501;SDS011;27639;48.674;9.242;2023-04-07T05:21:07;12.57;;;8.45;;
21501;SDS011;27639;48.674;9.242;2023-04-07T05:23:33;12.57;;;8.52;;
21501;SDS011;27639;48.674;9.242;2023-04-07T05:25:59;12.55;;;8.60;;
21501;SDS011;27639;48.674;9.242;2023-04-07T05:28:25;11.13;;;8.15;;
21501;SDS011;27639;48.674;9.242;2023-04-07T05:30:51;12.60;;;8.65;;
21501;SDS011;27639;48.674;9.242;2023-04-07T05:33:16;11.70;;;8.25;;
21501;SDS011;27639;48.674;9.242;2023-04-07T05:35:45;12.55;;;9.35;;
21501;SDS011;27639;48.674;9.242;2023-04-07T05:38:11;12.20;;;8.77;;
21501;SDS011;27639;48.674;9.242;2023-04-07T05:40:38;12.45;;;9.50;;
21501;SDS011;27639;48.674;9.242;2023-04-07T05:43:03;11.88;;;8.63;;
21501;SDS011;27639;48.674;9.242;2023-04-07T05:45:29;12.32;;;8.63;;
21501;SDS011;27639;48.674;9.242;2023-04-07T05:47:55;12.25;;;8.85;;
21501;SDS011;27639;48.674;9.242;2023-04-07T05:50:20;11.10;;;8.73;;
21501;SDS011;27639;48.674;9.242;2023-04-07T05:52:46;11.68;;;8.25;;
21501;SDS011;27639;48.674;9.242;2023-04-07T05:55:11;11.60;;;8.93;;
21501;SDS011;27639;48.674;9.242;2023-04-07T05:57:37;12.75;;;9.57;;
21501;SDS011;27639;48.674;9.242;2023-04-07T06:00:03;12.68;;;9.43;;
21501;SDS011;27639;48.674;9.242;2023-04-07T06:02:29;14.55;;;9.90;;
21501;SDS011;27639;48.674;9.242;2023-04-07T06:04:54;13.43;;;9.75;;
21501;SDS011;27639;48.674;9.242;2023-04-07T06:07:20;14.77;;;10.27;;
21501;SDS011;27639;48.674;9.242;2023-04-07T06:09:46;13.25;;;10.32;;
21501;SDS011;27639;48.674;9.242;2023-04-07T06:12:11;14.52;;;10.85;;
21501;SDS011;27639;48.674;9.242;2023-04-07T06:14:37;15.05;;;11.20;;
21501;SDS011;27639;48.674;9.242;2023-04-07T06:17:03;15.18;;;11.10;;
21501;SDS011;27639;48.674;9.242;2023-04-07T06:19:28;15.07;;;10.77;;
21501;SDS011;27639;48.674;9.242;2023-04-07T06:21:54;16.00;;;11.10;;
21501;SDS011;27639;48.674;9.242;2023-04-07T06:24:20;16.15;;;11.93;;
21501;SDS011;27639;48.674;9.242;2023-04-07T06:26:48;12.30;;;9.25;;
21501;SDS011;27639;48.674;9.242;2023-04-07T06:29:15;12.25;;;9.43;;
21501;SDS011;27639;48.674;9.242;2023-04-07T06:31:40;13.48;;;9.98;;
21501;SDS011;27639;48.674;9.242;2023-04-07T06:34:06;12.57;;;9.18;;
21501;SDS011;27639;48.674;9.242;2023-04-07T06:36:31;13.80;;;9.50;;
21501;SDS011;27639;48.674;9.242;2023-04-07T06:38:57;13.02;;;9.98;;
21501;SDS011;27639;48.674;9.242;2023-04-07T06:41:23;13.52;;;9.88;;
21501;SDS011;27639;48.674;9.242;2023-04-07T06:43:49;13.32;;;10.50;;
21501;SDS011;27639;48.674;9.242;2023-04-07T06:46:17;13.10;;;9.55;;
21501;SDS011;27639;48.674;9.242;2023-04-07T06:48:44;14.38;;;9.52;;
21501;SDS011;27639;48.674;9.242;2023-04-07T06:51:10;12.38;;;8.85;;
21501;SDS011;27639;48.674;9.242;2023-04-07T06:53:35;13.45;;;10.40;;
21501;SDS011;27639;48.674;9.242;2023-04-07T06:56:08;14.05;;;10.05;;
21501;SDS011;27639;48.674;9.242;2023-04-07T06:58:35;14.35;;;10.77;;
21501;SDS011;27639;48.674;9.242;2023-04-07T07:01:01;14.00;;;10.43;;
21501;SDS011;27639;48.674;9.242;2023-04-07T07:03:28;13.93;;;10.00;;
21501;SDS011;27639;48.674;9.242;2023-04-07T07:05:55;13.45;;;9.77;;
21501;SDS011;27639;48.674;9.242;2023-04-07T07:08:25;14.43;;;10.60;;
21501;SDS011;27639;48.674;9.242;2023-04-07T07:10:51;14.70;;;9.93;;
21501;SDS011;27639;48.674;9.242;2023-04-07T07:13:17;14.82;;;10.48;;
21501;SDS011;27639;48.674;9.242;2023-04-07T07:15:44;15.07;;;10.65;;
21501;SDS011;27639;48.674;9.242;2023-04-07T07:18:10;13.25;;;10.07;;
21501;SDS011;27639;48.674;9.242;2023-04-07T07:20:36;14.20;;;10.98;;
21501;SDS011;27639;48.674;9.242;2023-04-07T07:23:02;13.77;;;10.50;;
21501;SDS011;27639;48.674;9.242;2023-04-07T07:25:28;13.23;;;9.35;;
21501;SDS011;27639;48.674;9.242;2023-04-07T07:27:53;12.15;;;9.18;;
21501;SDS011;27639;48.674;9.242;2023-04-07T07:30:20;12.88;;;9.70;;
21501;SDS011;27639;48.674;9.242;2023-04-07T07:32:46;11.50;;;8.88;;
21501;SDS011;27639;48.674;9.242;2023-04-07T07:35:12;12.38;;;8.90;;
21501;SDS011;27639;48.674;9.242;2023-04-07T07:37:38;12.10;;;9.02;;
21501;SDS011;27639;48.674;9.242;2023-04-07T07:40:03;11.90;;;8.55;;
21501;SDS011;27639;48.674;9.242;2023-04-07T07:42:30;10.50;;;7.97;;
21501;SDS011;27639;48.674;9.242;2023-04-07T07:44:56;10.80;;;8.20;;
21501;SDS011;27639;48.674;9.242;2023-04-07T07:47:22;14.35;;;9.52;;
21501;SDS011;27639;48.674;9.242;2023-04-07T07:49:48;11.55;;;8.07;;
21501;SDS011;27639;48.674;9.242;2023-04-07T07:52:13;11.95;;;8.07;;
21501;SDS011;27639;48.674;9.242;2023-04-07T07:54:39;11.23;;;8.10;;
21501;SDS011;27639;48.674;9.242;2023-04-07T07:57:05;10.57;;;8.20;;
21501;SDS011;27639;48.674;9.242;2023-04-07T07:59:31;10.40;;;7.68;;
21501;SDS011;27639;48.674;9.242;2023-04-07T08:01:57;10.73;;;7.93;;
21501;SDS011;27639;48.674;9.242;2023-04-07T08:04:22;11.60;;;7.88;;
21501;SDS011;27639;48.674;9.242;2023-04-07T08:06:49;14.18;;;7.68;;
21501;SDS011;27639;48.674;9.242;2023-04-07T08:09:15;10.68;;;7.43;;
21501;SDS011;27639;48.674;9.242;2023-04-07T08:11:41;9.32;;;7.13;;
21501;SDS011;27639;48.674;9.242;2023-04-07T08:14:07;9.02;;;6.38;;
21501;SDS011;27639;48.674;9.242;2023-04-07T08:16:33;10.98;;;6.97;;
21501;SDS011;27639;48.674;9.242;2023-04-07T08:18:58;9.73;;;6.47;;
21501;SDS011;27639;48.674;9.242;2023-04-07T08:21:24;9.82;;;7.35;;
21501;SDS011;27639;48.674;9.242;2023-04-07T08:23:52;9.57;;;6.53;;
21501;SDS011;27639;48.674;9.242;2023-04-07T08:26:18;10.40;;;7.47;;
21501;SDS011;27639;48.674;9.242;2023-04-07T08:28:45;9.23;;;7.00;;
21501;SDS011;27639;48.674;9.242;2023-04-07T08:31:11;15.65;;;10.70;;
21501;SDS011;27639;48.674;9.242;2023-04-07T08:33:36;12.10;;;7.45;;
21501;SDS011;27639;48.674;9.242;2023-04-07T08:36:02;8.18;;;6.53;;
21501;SDS011;27639;48.674;9.242;2023-04-07T08:38:28;8.38;;;6.05;;
21501;SDS011;27639;48.674;9.242;2023-04-07T08:40:55;9.77;;;5.97;;
21501;SDS011;27639;48.674;9.242;2023-04-07T08:43:28;10.88;;;5.88;;
21501;SDS011;27639;48.674;9.242;2023-04-07T08:45:55;8.73;;;5.78;;
21501;SDS011;27639;48.674;9.242;2023-04-07T08:48:22;9.55;;;5.20;;
21501;SDS011;27639;48.674;9.242;2023-04-07T08:50:51;7.75;;;5.55;;
21501;SDS011;27639;48.674;9.242;2023-04-07T08:53:18;7.65;;;5.45;;
21501;SDS011;27639;48.674;9.242;2023-04-07T08:55:48;6.57;;;4.93;;
21501;SDS011;27639;48.674;9.242;2023-04-07T08:58:14;6.38;;;4.88;;
21501;SDS011;27639;48.674;9.242;2023-04-07T09:00:42;7.72;;;5.15;;
21501;SDS011;27639;48.674;9.242;2023-04-07T09:03:09;6.97;;;4.57;;
21501;SDS011;27639;48.674;9.242;2023-04-07T09:05:35;7.10;;;4.50;;
21501;SDS011;27639;48.674;9.242;2023-04-07T09:08:02;5.85;;;3.97;;
21501;SDS011;27639;48.674;9.242;2023-04-07T09:10:28;7.30;;;4.57;;
21501;SDS011;27639;48.674;9.242;2023-04-07T09:12:54;6.13;;;4.38;;
21501;SDS011;27639;48.674;9.242;2023-04-07T09:15:22;7.40;;;4.72;;
21501;SDS011;27639;48.674;9.242;2023-04-07T09:17:48;8.07;;;4.78;;
21501;SDS011;27639;48.674;9.242;2023-04-07T09:20:14;9.15;;;5.00;;
21501;SDS011;27639;48.674;9.242;2023-04-07T09:22:40;7.20;;;5.07;;
21501;SDS011;27639;48.674;9.242;2023-04-07T09:25:11;6.15;;;4.63;;
21501;SDS011;27639;48.674;9.242;2023-04-07T09:27:37;6.60;;;5.00;;
21501;SDS011;27639;48.674;9.242;2023-04-07T09:30:12;6.90;;;4.75;;
21501;SDS011;27639;48.674;9.242;2023-04-07T09:32:39;7.28;;;4.88;;
21501;SDS011;27639;48.674;9.242;2023-04-07T09:35:06;7.63;;;5.00;;
21501;SDS011;27639;48.674;9.242;2023-04-07T09:37:32;6.63;;;4.70;;
21501;SDS011;27639;48.674;9.242;2023-04-07T09:39:57;7.43;;;4.60;;
21501;SDS011;27639;48.674;9.242;2023-04-07T09:42:24;7.15;;;5.20;;
21501;SDS011;27639;48.674;9.242;2023-04-07T09:44:50;6.65;;;4.80;;
21501;SDS011;27639;48.674;9.242;2023-04-07T09:47:16;7.03;;;4.88;;
21501;SDS011;27639;48.674;9.242;2023-04-07T09:49:50;7.38;;;4.63;;
21501;SDS011;27639;48.674;9.242;2023-04-07T09:52:17;7.75;;;5.28;;
21501;SDS011;27639;48.674;9.242;2023-04-07T09:54:44;7.10;;;4.40;;
21501;SDS011;27639;48.674;9.242;2023-04-07T09:57:11;7.80;;;4.95;;
21501;SDS011;27639;48.674;9.242;2023-04-07T09:59:39;7.03;;;4.68;;
21501;SDS011;27639;48.674;9.242;2023-04-07T10:02:07;8.15;;;4.68;;
21501;SDS011;27639;48.674;9.242;2023-04-07T10:04:33;7.80;;;4.47;;
21501;SDS011;27639;48.674;9.242;2023-04-07T10:06:58;6.93;;;4.53;;
21501;SDS011;27639;48.674;9.242;2023-04-07T10:09:28;6.85;;;4.55;;
21501;SDS011;27639;48.674;9.242;2023-04-07T10:11:55;7.40;;;4.60;;
21501;SDS011;27639;48.674;9.242;2023-04-07T10:14:24;7.78;;;4.40;;
21501;SDS011;27639;48.674;9.242;2023-04-07T10:16:51;6.47;;;4.85;;
21501;SDS011;27639;48.674;9.242;2023-04-07T10:19:18;9.40;;;5.60;;
21501;SDS011;27639;48.674;9.242;2023-04-07T10:21:45;8.93;;;5.20;;
21501;SDS011;27639;48.674;9.242;2023-04-07T10:27:12;7.25;;;4.60;;
21501;SDS011;27639;48.674;9.242;2023-04-07T10:29:42;7.80;;;4.55;;
21501;SDS011;27639;48.674;9.242;2023-04-07T10:32:11;7.72;;;4.97;;
21501;SDS011;27639;48.674;9.242;2023-04-07T10:37:12;7.22;;;4.20;;
21501;SDS011;27639;48.674;9.242;2023-04-07T10:39:41;7.53;;;3.95;;
21501;SDS011;27639;48.674;9.242;2023-04-07T10:42:34;5.97;;;3.95;;
21501;SDS011;27639;48.674;9.242;2023-04-07T10:45:50;7.03;;;3.83;;
21501;SDS011;27639;48.674;9.242;2023-04-07T10:48:12;7.03;;;3.92;;
21501;SDS011;27639;48.674;9.242;2023-04-07T10:50:43;7.45;;;3.60;;
21501;SDS011;27639;48.674;9.242;2023-04-07T10:53:09;5.75;;;3.60;;
21501;SDS011;27639;48.674;9.242;2023-04-07T10:58:19;6.35;;;3.15;;
21501;SDS011;27639;48.674;9.242;2023-04-07T11:08:31;6.53;;;4.25;;
21501;SDS011;27639;48.674;9.242;2023-04-07T11:10:57;7.15;;;4.53;;
21501;SDS011;27639;48.674;9.242;2023-04-07T11:13:23;6.70;;;4.22;;
21501;SDS011;27639;48.674;9.242;2023-04-07T11:15:49;5.75;;;3.47;;
21501;SDS011;27639;48.674;9.242;2023-04-07T11:18:17;4.28;;;2.70;;
21501;SDS011;27639;48.674;9.242;2023-04-07T11:20:45;5.28;;;2.53;;
21501;SDS011;27639;48.674;9.242;2023-04-07T11:23:19;3.60;;;1.92;;
21501;SDS011;27639;48.674;9.242;2023-04-07T11:25:47;3.47;;;1.63;;
21501;SDS011;27639;48.674;9.242;2023-04-07T11:28:14;3.15;;;1.60;;
21501;SDS011;27639;48.674;9.242;2023-04-07T11:30:50;3.55;;;1.90;;
21501;SDS011;27639;48.674;9.242;2023-04-07T11:33:22;3.90;;;1.80;;
21501;SDS011;27639;48.674;9.242;2023-04-07T11:35:53;3.00;;;1.35;;
21501;SDS011;27639;48.674;9.242;2023-04-07T11:38:24;3.00;;;1.23;;
21501;SDS011;27639;48.674;9.242;2023-04-07T11:40:51;3.03;;;1.20;;
21501;SDS011;27639;48.674;9.242;2023-04-07T11:43:27;2.47;;;1.23;;
21501;SDS011;27639;48.674;9.242;2023-04-07T11:46:03;2.92;;;1.10;;
21501;SDS011;27639;48.674;9.242;2023-04-07T11:48:31;3.08;;;1.08;;
21501;SDS011;27639;48.674;9.242;2023-04-07T11:50:58;2.67;;;1.20;;
21501;SDS011;27639;48.674;9.242;2023-04-07T11:53:25;2.45;;;1.15;;
21501;SDS011;27639;48.674;9.242;2023-04-07T11:56:05;3.00;;;1.10;;
21501;SDS011;27639;48.674;9.242;2023-04-07T11:58:49;2.63;;;1.17;;
21501;SDS011;27639;48.674;9.242;2023-04-07T12:01:15;3.45;;;1.15;;
21501;SDS011;27639;48.674;9.242;2023-04-07T12:04:00;3.13;;;1.10;;
21501;SDS011;27639;48.674;9.242;2023-04-07T12:06:34;2.80;;;1.20;;
21501;SDS011;27639;48.674;9.242;2023-04-07T12:09:06;3.45;;;1.40;;
21501;SDS011;27639;48.674;9.242;2023-04-07T12:11:51;3.58;;;1.52;;
21501;SDS011;27639;48.674;9.242;2023-04-07T12:14:17;3.72;;;1.70;;
21501;SDS011;27639;48.674;9.242;2023-04-07T12:16:42;3.15;;;1.50;;
21501;SDS011;27639;48.674;9.242;2023-04-07T12:19:09;4.20;;;2.03;;
21501;SDS011;27639;48.674;9.242;2023-04-07T12:21:34;5.50;;;2.20;;
21501;SDS011;27639;48.674;9.242;2023-04-07T12:24:00;5.43;;;2.10;;
21501;SDS011;27639;48.674;9.242;2023-04-07T12:26:26;4.45;;;2.10;;
21501;SDS011;27639;48.674;9.242;2023-04-07T12:28:52;4.90;;;2.60;;
21501;SDS011;27639;48.674;9.242;2023-04-07T12:31:17;5.57;;;3.30;;
21501;SDS011;27639;48.674;9.242;2023-04-07T12:33:43;5.93;;;3.50;;
21501;SDS011;27639;48.674;9.242;2023-04-07T12:36:09;8.32;;;4.00;;
21501;SDS011;27639;48.674;9.242;2023-04-07T12:38:35;7.05;;;4.20;;
21501;SDS011;27639;48.674;9.242;2023-04-07T12:41:00;7.28;;;4.47;;
21501;SDS011;27639;48.674;9.242;2023-04-07T12:43:30;6.88;;;4.20;;
21501;SDS011;27639;48.674;9.242;2023-04-07T12:45:56;6.70;;;4.25;;
21501;SDS011;27639;48.674;9.242;2023-04-07T12:48:22;7.15;;;4.35;;
21501;SDS011;27639;48.674;9.242;2023-04-07T12:50:48;7.43;;;4.80;;
21501;SDS011;27639;48.674;9.242;2023-04-07T12:53:16;9.70;;;5.40;;
21501;SDS011;27639;48.674;9.242;2023-04-07T12:55:41;8.13;;;4.43;;
21501;SDS011;27639;48.674;9.242;2023-04-07T12:58:07;8.43;;;5.45;;
21501;SDS011;27639;48.674;9.242;2023-04-07T13:00:33;8.32;;;5.78;;
21501;SDS011;27639;48.674;9.242;2023-04-07T13:02:59;9.45;;;4.70;;
21501;SDS011;27639;48.674;9.242;2023-04-07T13:05:25;6.50;;;4.95;;
21501;SDS011;27639;48.674;9.242;2023-04-07T13:07:51;7.90;;;4.75;;
21501;SDS011;27639;48.674;9.242;2023-04-07T13:10:17;6.43;;;4.32;;
21501;SDS011;27639;48.674;9.242;2023-04-07T13:12:42;4.43;;;3.10;;
21501;SDS011;27639;48.674;9.242;2023-04-07T13:15:08;5.22;;;3.17;;
21501;SDS011;27639;48.674;9.242;2023-04-07T13:17:33;5.63;;;3.00;;
21501;SDS011;27639;48.674;9.242;2023-04-07T13:20:01;4.38;;;2.20;;
21501;SDS011;27639;48.674;9.242;2023-04-07T13:22:30;3.42;;;2.20;;
21501;SDS011;27639;48.674;9.242;2023-04-07T13:24:56;3.50;;;1.65;;
21501;SDS011;27639;48.674;9.242;2023-04-07T13:27:21;4.20;;;1.92;;
21501;SDS011;27639;48.674;9.242;2023-04-07T13:29:47;3.97;;;2.25;;
21501;SDS011;27639;48.674;9.242;2023-04-07T13:32:13;6.75;;;2.78;;
21501;SDS011;27639;48.674;9.242;2023-04-07T13:34:39;3.63;;;1.80;;
21501;SDS011;27639;48.674;9.242;2023-04-07T13:37:05;3.50;;;2.08;;
21501;SDS011;27639;48.674;9.242;2023-04-07T13:39:31;4.40;;;2.33;;
21501;SDS011;27639;48.674;9.242;2023-04-07T13:41:57;4.38;;;2.22;;
21501;SDS011;27639;48.674;9.242;2023-04-07T13:44:25;3.88;;;2.17;;
21501;SDS011;27639;48.674;9.242;2023-04-07T13:46:51;4.30;;;1.90;;
21501;SDS011;27639;48.674;9.242;2023-04-07T13:49:17;3.70;;;1.65;;
21501;SDS011;27639;48.674;9.242;2023-04-07T13:51:42;3.95;;;1.90;;
21501;SDS011;27639;48.674;9.242;2023-04-07T13:54:08;3.65;;;1.55;;
21501;SDS011;27639;48.674;9.242;2023-04-07T13:56:34;4.43;;;1.83;;
21501;SDS011;27639;48.674;9.242;2023-04-07T13:59:02;3.63;;;2.10;;
21501;SDS011;27639;48.674;9.242;2023-04-07T14:01:28;3.47;;;2.00;;
21501;SDS011;27639;48.674;9.242;2023-04-07T14:03:54;4.90;;;2.20;;
21501;SDS011;27639;48.674;9.242;2023-04-07T14:06:20;4.63;;;2.55;;
21501;SDS011;27639;48.674;9.242;2023-04-07T14:08:47;3.92;;;2.40;;
21501;SDS011;27639;48.674;9.242;2023-04-07T14:11:19;4.03;;;2.08;;
21501;SDS011;27639;48.674;9.242;2023-04-07T14:13:46;4.32;;;2.38;;
21501;SDS011;27639;48.674;9.242;2023-04-07T14:16:12;6.57;;;2.95;;
21501;SDS011;27639;48.674;9.242;2023-04-07T14:18:37;4.35;;;2.60;;
21501;SDS011;27639;48.674;9.242;2023-04-07T14:21:03;5.47;;;2.40;;
21501;SDS011;27639;48.674;9.242;2023-04-07T14:23:30;5.63;;;2.20;;
21501;SDS011;27639;48.674;9.242;2023-04-07T14:25:58;4.15;;;1.90;;
21501;SDS011;27639;48.674;9.242;2023-04-07T14:28:24;4.10;;;2.00;;
21501;SDS011;27639;48.674;9.242;2023-04-07T14:30:51;4.05;;;1.85;;
21501;SDS011;27639;48.674;9.242;2023-04-07T14:33:17;3.63;;;1.83;;
21501;SDS011;27639;48.674;9.242;2023-04-07T14:35:42;4.90;;;2.10;;
21501;SDS011;27639;48.674;9.242;2023-04-07T14:38:08;4.93;;;2.00;;
21501;SDS011;27639;48.674;9.242;2023-04-07T14:40:34;5.95;;;2.22;;
21501;SDS011;27639;48.674;9.242;2023-04-07T14:43:00;4.70;;;2.38;;
21501;SDS011;27639;48.674;9.242;2023-04-07T14:45:31;5.00;;;2.05;;
21501;SDS011;27639;48.674;9.242;2023-04-07T14:47:57;5.68;;;2.10;;
21501;SDS011;27639;48.674;9.242;2023-04-07T14:50:22;6.72;;;2.65;;
21501;SDS011;27639;48.674;9.242;2023-04-07T14:52:48;5.28;;;2.25;;
21501;SDS011;27639;48.674;9.242;2023-04-07T14:55:14;5.43;;;2.78;;
21501;SDS011;27639;48.674;9.242;2023-04-07T14:57:40;3.92;;;2.45;;
21501;SDS011;27639;48.674;9.242;2023-04-07T15:00:05;4.68;;;2.40;;
21501;SDS011;27639;48.674;9.242;2023-04-07T15:02:33;4.88;;;2.53;;
21501;SDS011;27639;48.674;9.242;2023-04-07T15:04:59;5.85;;;3.00;;